Terminal Aerodrome Forecast
Issued by NWS Shreveport, LA

Home | Current Version | Previous Version | Text Only | Print | Product List | Glossary On
Versions: 1 2 3 4 5 6 7 8 9 10 11 12
000
FTUS44 KSHV 271100 RRA
TAFELD
TAF
KELD 271142Z 2712/2812 17004KT 2SM RA BR VCSH OVC004
      TEMPO 2714/2718 1 1/2SM TSRA BR BKN004 OVC015CB
     FM271800 34007KT 6SM BR OVC007
     FM280200 34012KT 3SM -RA BR OVC014
     FM280900 34009KT P6SM OVC007=

USA.gov is the U.S. government's official web portal to all federal, state and local government web resources and services.